Time;durP1;ratioP1;P1;durP2;ratioP2;P2;SDS_P1;SDS_P2;PMS_P1;PMS_P2;Temp;Humidity;BMP_temperature;BMP_pressure;BME280_temperature;BME280_humidity;BME280_pressure;Samples;Min_cycle;Max_cycle;Signal;HPM_P1;HPM_P2
2023/04/08 00:01:19;;;;;;;1.20;1.20;;;5.90;99.90;;;;;;5093657;28;20105;-75
2023/04/08 00:03:45;;;;;;;1.25;1.25;;;5.80;99.90;;;;;;5093349;28;20502;-75
2023/04/08 00:06:10;;;;;;;1.45;1.40;;;5.70;99.90;;;;;;5093191;28;20044;-76
2023/04/08 00:08:36;;;;;;;1.40;1.40;;;5.60;99.90;;;;;;5094805;28;20040;-75
2023/04/08 00:11:02;;;;;;;1.40;1.30;;;5.60;99.90;;;;;;5094744;28;20036;-76
2023/04/08 00:13:27;;;;;;;1.30;1.20;;;5.60;99.90;;;;;;5093402;28;20118;-75
2023/04/08 00:15:53;;;;;;;1.48;1.38;;;5.60;99.90;;;;;;5093364;28;20051;-75
2023/04/08 00:18:19;;;;;;;1.60;1.50;;;5.50;99.90;;;;;;5094352;28;20110;-76
2023/04/08 00:20:45;;;;;;;1.30;1.20;;;5.60;99.90;;;;;;5094526;28;20547;-76
2023/04/08 00:23:10;;;;;;;1.50;1.40;;;5.50;99.90;;;;;;5094682;28;20067;-76
2023/04/08 00:25:36;;;;;;;1.40;1.30;;;5.60;99.90;;;;;;5076294;28;20040;-75
2023/04/08 00:28:02;;;;;;;1.20;1.10;;;5.50;99.90;;;;;;5094516;28;20161;-76
2023/04/08 00:30:27;;;;;;;1.40;1.30;;;5.50;99.90;;;;;;5092871;28;20052;-76
2023/04/08 00:32:53;;;;;;;1.35;1.25;;;5.40;99.90;;;;;;5092881;28;20040;-76
2023/04/08 00:35:19;;;;;;;1.27;1.27;;;5.40;99.90;;;;;;5094404;28;20032;-76
2023/04/08 00:37:45;;;;;;;1.50;1.40;;;5.30;99.90;;;;;;5092746;28;20334;-75
2023/04/08 00:40:11;;;;;;;1.38;1.27;;;5.30;99.90;;;;;;5094246;28;20109;-75
2023/04/08 00:42:37;;;;;;;1.50;1.40;;;5.20;99.90;;;;;;5094217;28;20032;-76
2023/04/08 00:45:03;;;;;;;1.40;1.40;;;5.20;99.90;;;;;;5094107;28;20047;-75
2023/04/08 00:47:29;;;;;;;1.80;1.70;;;5.10;99.90;;;;;;5092394;28;20502;-75
2023/04/08 00:49:55;;;;;;;1.60;1.50;;;5.00;99.90;;;;;;5092497;28;20052;-76
2023/04/08 00:52:20;;;;;;;1.40;1.40;;;4.90;99.90;;;;;;5092457;28;20429;-76
2023/04/08 00:54:46;;;;;;;1.70;1.60;;;5.00;99.90;;;;;;5092423;28;20040;-75
2023/04/08 00:57:12;;;;;;;1.50;1.40;;;4.90;99.90;;;;;;5092452;28;20044;-76
2023/04/08 00:59:38;;;;;;;1.60;1.50;;;4.80;99.90;;;;;;5093917;28;20082;-75
2023/04/08 01:02:42;;;;;;;1.65;1.55;;;4.80;99.90;;;;;;5092281;28;20048;-76
2023/04/08 01:05:14;;;;;;;1.50;1.40;;;4.90;99.90;;;;;;5082134;28;20056;-76
2023/04/08 01:07:47;;;;;;;1.83;1.70;;;4.70;99.90;;;;;;5093850;28;20028;-76
2023/04/08 01:10:20;;;;;;;1.80;1.70;;;4.50;99.90;;;;;;5092575;28;20039;-76
2023/04/08 01:12:53;;;;;;;1.60;1.50;;;4.60;99.90;;;;;;5093755;28;20051;-76
2023/04/08 01:15:20;;;;;;;2.00;1.90;;;4.70;99.90;;;;;;5093746;28;20043;-76
2023/04/08 01:17:49;;;;;;;1.70;1.60;;;4.60;99.90;;;;;;5126544;27;20119;-75
2023/04/08 01:20:16;;;;;;;1.77;1.67;;;4.70;99.90;;;;;;5092350;28;20531;-75
2023/04/08 01:23:00;;;;;;;1.70;1.60;;;4.70;99.90;;;;;;5075431;28;20097;-75
2023/04/08 01:25:37;;;;;;;1.70;1.60;;;4.80;99.90;;;;;;5093611;28;20389;-75
2023/04/08 01:28:10;;;;;;;1.77;1.67;;;4.80;99.90;;;;;;5091963;28;20036;-75
2023/04/08 01:30:39;;;;;;;1.80;1.70;;;4.80;99.90;;;;;;5092319;28;20040;-75
2023/04/08 01:33:05;;;;;;;1.77;1.67;;;4.80;99.90;;;;;;5093606;28;20036;-76
2023/04/08 01:35:31;;;;;;;1.80;1.70;;;4.80;99.90;;;;;;5091944;28;20043;-76
2023/04/08 01:37:59;;;;;;;1.92;1.83;;;4.80;99.90;;;;;;5093118;28;20087;-76
2023/04/08 01:40:25;;;;;;;1.92;1.83;;;4.70;99.90;;;;;;5093240;28;20561;-76
2023/04/08 01:42:54;;;;;;;2.10;2.00;;;4.70;99.90;;;;;;5093397;28;20123;-76
2023/04/08 01:45:21;;;;;;;1.80;1.70;;;4.70;99.90;;;;;;5091857;28;20040;-75
2023/04/08 01:47:48;;;;;;;2.00;1.90;;;4.70;99.90;;;;;;5091771;28;20097;-75
2023/04/08 01:50:15;;;;;;;1.65;1.55;;;4.60;99.90;;;;;;5093370;28;20111;-75
2023/04/08 01:52:47;;;;;;;2.10;2.00;;;4.60;99.90;;;;;;5093141;28;20476;-76
2023/04/08 01:55:12;;;;;;;2.20;2.03;;;4.60;99.90;;;;;;5091819;28;20071;-76
2023/04/08 01:57:40;;;;;;;1.90;1.80;;;4.20;99.90;;;;;;5093337;28;20067;-76
2023/04/08 02:00:11;;;;;;;2.10;2.00;;;3.80;99.90;;;;;;5093060;28;20032;-76
2023/04/08 02:02:40;;;;;;;1.90;1.60;;;3.60;99.90;;;;;;5093225;28;20040;-75
2023/04/08 02:05:06;;;;;;;2.05;1.95;;;3.50;99.90;;;;;;5091938;28;20430;-76
2023/04/08 02:07:31;;;;;;;2.20;2.10;;;3.30;99.90;;;;;;5092843;28;20043;-76
2023/04/08 02:09:57;;;;;;;1.90;1.80;;;3.20;99.90;;;;;;5094997;28;20396;-76
2023/04/08 02:12:24;;;;;;;2.00;1.90;;;3.10;99.90;;;;;;5097128;28;20029;-75
2023/04/08 02:14:50;;;;;;;2.42;2.33;;;3.10;99.90;;;;;;5096973;28;20047;-75
2023/04/08 02:17:23;;;;;;;1.80;1.70;;;3.20;99.90;;;;;;5097004;28;20056;-77
2023/04/08 02:19:58;;;;;;;1.80;1.70;;;3.10;99.90;;;;;;5096931;28;20147;-76
2023/04/08 02:22:51;;;;;;;2.38;2.20;;;3.00;99.90;;;;;;5095339;28;20055;-75
2023/04/08 02:25:23;;;;;;;2.45;2.30;;;2.90;99.90;;;;;;5096836;28;20441;-75
2023/04/08 02:27:50;;;;;;;2.40;2.30;;;2.90;99.90;;;;;;5095174;28;20491;-75
2023/04/08 02:30:17;;;;;;;2.13;2.03;;;2.90;99.90;;;;;;5095402;28;20052;-75
2023/04/08 02:32:44;;;;;;;2.17;2.08;;;3.00;99.90;;;;;;5095519;28;20384;-76
2023/04/08 02:35:11;;;;;;;2.40;2.30;;;3.00;99.90;;;;;;5095118;28;20081;-76
2023/04/08 02:37:38;;;;;;;2.30;2.20;;;3.10;99.90;;;;;;5096410;28;20189;-75
2023/04/08 02:40:20;;;;;;;2.25;2.15;;;3.10;99.90;;;;;;5097118;28;20043;-77
2023/04/08 02:42:46;;;;;;;2.40;2.30;;;3.10;99.90;;;;;;5095081;28;20046;-76
2023/04/08 02:45:11;;;;;;;2.10;2.00;;;3.00;99.90;;;;;;5096467;28;20032;-75
2023/04/08 02:47:37;;;;;;;2.67;2.47;;;3.00;99.90;;;;;;5094833;28;20047;-75
2023/04/08 02:50:03;;;;;;;2.20;2.00;;;3.00;99.90;;;;;;5129144;27;20058;-75
2023/04/08 02:52:29;;;;;;;2.25;2.15;;;2.90;99.90;;;;;;5095090;28;20089;-76
2023/04/08 02:54:54;;;;;;;2.47;2.28;;;2.80;99.90;;;;;;5094950;28;20399;-75
2023/04/08 02:57:20;;;;;;;2.45;2.35;;;2.70;99.90;;;;;;5094626;28;20036;-75
2023/04/08 02:59:45;;;;;;;2.25;2.15;;;2.70;99.90;;;;;;5094619;28;20092;-75
2023/04/08 03:02:11;;;;;;;2.47;2.33;;;2.70;99.90;;;;;;5096101;28;20039;-75
2023/04/08 03:04:36;;;;;;;2.45;2.35;;;2.70;99.90;;;;;;5095802;28;20036;-75
2023/04/08 03:07:02;;;;;;;2.20;2.10;;;2.70;99.90;;;;;;5094541;28;20036;-76
2023/04/08 03:09:28;;;;;;;2.40;2.30;;;2.80;99.90;;;;;;5095981;28;20040;-75
2023/04/08 03:11:53;;;;;;;2.50;2.40;;;2.80;99.90;;;;;;5128541;27;20039;-75
2023/04/08 03:14:20;;;;;;;2.83;2.63;;;2.90;99.90;;;;;;5094420;28;20399;-75
2023/04/08 03:16:46;;;;;;;2.55;2.45;;;2.90;99.90;;;;;;5095849;28;20453;-75
2023/04/08 03:19:11;;;;;;;2.20;2.10;;;2.90;99.90;;;;;;5077360;28;20079;-75
2023/04/08 03:21:37;;;;;;;2.35;2.25;;;3.00;99.90;;;;;;5094231;28;20377;-75
2023/04/08 03:24:03;;;;;;;2.90;2.72;;;3.10;99.90;;;;;;5095507;28;20081;-75
2023/04/08 03:26:28;;;;;;;2.45;2.35;;;3.10;99.90;;;;;;5095377;28;20036;-75
2023/04/08 03:28:54;;;;;;;2.75;2.55;;;3.20;99.90;;;;;;5094196;28;20136;-75
2023/04/08 03:31:20;;;;;;;2.38;2.28;;;3.30;99.90;;;;;;5094859;28;20106;-76
2023/04/08 03:33:46;;;;;;;2.20;2.10;;;3.20;99.90;;;;;;5095596;28;20106;-75
2023/04/08 03:36:11;;;;;;;2.65;2.50;;;3.00;99.90;;;;;;5094105;28;20048;-75
2023/04/08 03:38:37;;;;;;;2.38;2.28;;;2.90;99.90;;;;;;5095049;28;20048;-75
2023/04/08 03:41:03;;;;;;;2.65;2.55;;;3.00;99.90;;;;;;5095384;28;20036;-75
2023/04/08 03:43:28;;;;;;;2.70;2.50;;;3.10;99.90;;;;;;5095369;28;20040;-75
2023/04/08 03:45:55;;;;;;;2.88;2.50;;;3.00;99.90;;;;;;5095178;28;20043;-75
2023/04/08 03:48:20;;;;;;;2.85;2.75;;;2.90;99.90;;;;;;5095240;28;20387;-75
2023/04/08 03:50:46;;;;;;;2.85;2.75;;;2.80;99.90;;;;;;5095227;28;20032;-75
2023/04/08 03:53:12;;;;;;;3.13;2.92;;;2.90;99.90;;;;;;5127697;27;20051;-75
2023/04/08 03:55:38;;;;;;;2.70;2.60;;;3.10;99.90;;;;;;5095098;28;20042;-75
2023/04/08 03:58:03;;;;;;;2.70;2.60;;;3.20;99.90;;;;;;5093581;28;20115;-75
2023/04/08 04:00:29;;;;;;;2.97;2.78;;;3.30;99.90;;;;;;5093771;28;20078;-75
2023/04/08 04:02:55;;;;;;;3.00;2.85;;;3.40;99.90;;;;;;5094926;28;20540;-75
2023/04/08 04:05:21;;;;;;;2.88;2.67;;;3.40;99.90;;;;;;5094910;28;20468;-75
2023/04/08 04:07:47;;;;;;;3.10;2.90;;;3.50;99.90;;;;;;5094781;28;20202;-75
2023/04/08 04:10:13;;;;;;;2.80;2.70;;;3.50;99.90;;;;;;5076642;28;20115;-75
2023/04/08 04:12:38;;;;;;;3.25;3.05;;;3.50;99.90;;;;;;5093527;28;20042;-75
2023/04/08 04:15:04;;;;;;;3.42;3.22;;;3.60;99.90;;;;;;5093538;28;20087;-75
2023/04/08 04:17:30;;;;;;;3.30;3.10;;;3.60;99.90;;;;;;5093082;28;20123;-75
2023/04/08 04:19:56;;;;;;;3.10;2.90;;;3.60;99.90;;;;;;5093335;28;20130;-75
2023/04/08 04:22:21;;;;;;;3.28;3.08;;;3.60;99.90;;;;;;5095074;28;20374;-75
2023/04/08 04:24:48;;;;;;;3.10;2.90;;;3.60;99.90;;;;;;5092992;28;20539;-75
2023/04/08 04:27:16;;;;;;;3.35;3.15;;;3.70;99.90;;;;;;5094359;28;20044;-75
2023/04/08 04:29:42;;;;;;;2.67;2.55;;;3.80;99.90;;;;;;5093037;28;20044;-74
2023/04/08 04:32:08;;;;;;;3.40;3.20;;;3.80;99.90;;;;;;5092715;28;20047;-76
2023/04/08 04:34:34;;;;;;;3.35;3.15;;;3.80;99.90;;;;;;5092802;28;20404;-76
2023/04/08 04:37:00;;;;;;;3.35;3.15;;;3.80;99.90;;;;;;5094164;28;20028;-76
2023/04/08 04:39:26;;;;;;;3.17;2.97;;;3.90;99.90;;;;;;5094951;28;20514;-76
2023/04/08 04:41:51;;;;;;;3.17;2.97;;;3.80;99.90;;;;;;5092684;28;20553;-76
2023/04/08 04:44:17;;;;;;;3.15;2.95;;;3.90;99.90;;;;;;5075750;28;20396;-76
2023/04/08 04:46:42;;;;;;;2.92;2.80;;;3.90;99.90;;;;;;5092551;28;20116;-75
2023/04/08 04:49:08;;;;;;;2.63;2.53;;;3.90;99.90;;;;;;5093806;28;20040;-75
2023/04/08 04:51:34;;;;;;;2.97;2.80;;;3.80;99.90;;;;;;5093811;28;20040;-75
2023/04/08 04:53:59;;;;;;;2.58;2.47;;;3.70;99.90;;;;;;5094006;28;20067;-75
2023/04/08 04:56:26;;;;;;;3.10;2.90;;;3.70;99.90;;;;;;5092428;28;20126;-76
2023/04/08 04:58:51;;;;;;;3.60;3.40;;;3.70;99.90;;;;;;5075587;28;20073;-76
2023/04/08 05:01:17;;;;;;;3.63;3.42;;;3.80;99.90;;;;;;5093134;28;20040;-76
2023/04/08 05:03:43;;;;;;;3.60;3.40;;;3.90;99.90;;;;;;5092339;28;20052;-76
2023/04/08 05:06:08;;;;;;;3.42;3.22;;;3.90;99.90;;;;;;5092312;28;20048;-76
2023/04/08 05:08:34;;;;;;;3.40;3.20;;;4.00;99.90;;;;;;5093806;28;20441;-76
2023/04/08 05:11:01;;;;;;;3.40;3.20;;;4.10;99.90;;;;;;5092484;28;20044;-76
2023/04/08 05:13:30;;;;;;;3.30;3.10;;;4.10;99.90;;;;;;5093704;28;20032;-76
2023/04/08 05:15:56;;;;;;;3.70;3.50;;;4.20;99.90;;;;;;5092448;28;20404;-75
2023/04/08 05:18:22;;;;;;;3.20;3.00;;;4.30;99.90;;;;;;5092185;28;20055;-76
2023/04/08 05:20:47;;;;;;;3.30;3.10;;;4.40;99.90;;;;;;5092122;28;20043;-75
2023/04/08 05:23:13;;;;;;;3.30;3.10;;;4.40;99.90;;;;;;5093733;28;20043;-76
2023/04/08 05:25:39;;;;;;;3.72;3.53;;;4.40;99.90;;;;;;5092089;28;20449;-76
2023/04/08 05:28:05;;;;;;;3.60;3.40;;;4.50;99.90;;;;;;5093547;28;20425;-77
2023/04/08 05:30:31;;;;;;;3.28;3.08;;;4.50;99.90;;;;;;5093357;28;20042;-77
2023/04/08 05:32:56;;;;;;;3.92;3.72;;;4.60;99.90;;;;;;5091983;28;20048;-76
2023/04/08 05:35:22;;;;;;;3.53;3.33;;;4.60;99.90;;;;;;5092028;28;20120;-77
2023/04/08 05:37:48;;;;;;;4.00;3.80;;;4.70;99.90;;;;;;5092008;28;20056;-76
2023/04/08 05:40:13;;;;;;;3.90;3.70;;;4.70;99.90;;;;;;5093202;28;20059;-77
2023/04/08 05:42:41;;;;;;;4.05;3.83;;;4.70;99.90;;;;;;5091966;28;20036;-77
2023/04/08 05:45:07;;;;;;;4.32;4.05;;;4.80;99.90;;;;;;5094543;28;20059;-77
2023/04/08 05:47:32;;;;;;;4.22;3.92;;;4.90;99.90;;;;;;5097293;28;20400;-77
2023/04/08 05:49:58;;;;;;;4.18;3.97;;;4.90;99.90;;;;;;5096070;28;20044;-77
2023/04/08 05:52:24;;;;;;;4.50;4.20;;;4.90;99.90;;;;;;5097468;28;20028;-76
2023/04/08 05:54:49;;;;;;;4.05;3.80;;;5.00;99.90;;;;;;5130003;27;20117;-77
2023/04/08 05:57:15;;;;;;;4.38;4.07;;;5.00;99.90;;;;;;5096100;28;20050;-76
2023/04/08 05:59:41;;;;;;;4.40;4.10;;;5.00;99.90;;;;;;5095842;28;20047;-76
2023/04/08 06:02:07;;;;;;;4.40;4.10;;;5.00;99.90;;;;;;5130149;27;20075;-76
2023/04/08 06:04:32;;;;;;;4.28;3.97;;;5.10;99.90;;;;;;5097360;28;20043;-76
2023/04/08 06:06:59;;;;;;;4.22;4.03;;;5.20;99.90;;;;;;5095609;28;20044;-76
2023/04/08 06:09:25;;;;;;;4.40;4.10;;;5.20;99.90;;;;;;5096067;28;20040;-76
2023/04/08 06:11:51;;;;;;;4.68;4.38;;;5.30;99.90;;;;;;5095624;28;20510;-76
2023/04/08 06:14:17;;;;;;;4.00;3.80;;;5.40;99.90;;;;;;5078699;28;20042;-76
2023/04/08 06:16:43;;;;;;;4.45;4.15;;;5.40;99.90;;;;;;5078634;28;20036;-75
2023/04/08 06:19:08;;;;;;;4.00;3.70;;;5.50;99.90;;;;;;5096812;28;20123;-76
2023/04/08 06:21:34;;;;;;;4.22;4.03;;;5.50;99.90;;;;;;5095785;28;20043;-74
2023/04/08 06:24:00;;;;;;;4.30;4.05;;;5.60;99.90;;;;;;5095456;28;20036;-75
2023/04/08 06:26:26;;;;;;;4.20;3.90;;;5.60;99.90;;;;;;5095226;28;20146;-75
2023/04/08 06:28:52;;;;;;;4.22;3.92;;;5.70;99.90;;;;;;5095557;28;20395;-76
2023/04/08 06:31:18;;;;;;;3.90;3.67;;;5.60;99.90;;;;;;5095478;28;20024;-76
2023/04/08 06:33:43;;;;;;;3.97;3.78;;;5.70;99.90;;;;;;5096477;28;20537;-73
2023/04/08 06:36:10;;;;;;;4.13;3.92;;;5.70;99.90;;;;;;5096759;28;20107;-77
2023/04/08 06:38:35;;;;;;;4.10;3.90;;;5.70;99.90;;;;;;5094058;28;20534;-77
2023/04/08 06:41:07;;;;;;;4.10;3.90;;;5.70;99.90;;;;;;5093925;28;20051;-78
2023/04/08 06:43:35;;;;;;;3.80;3.60;;;5.70;99.90;;;;;;5094054;28;20581;-76
2023/04/08 06:46:01;;;;;;;4.03;3.83;;;5.80;99.90;;;;;;5093735;28;20044;-73
2023/04/08 06:48:29;;;;;;;4.00;3.80;;;5.80;99.90;;;;;;5095314;28;20039;-75
2023/04/08 06:50:55;;;;;;;4.03;3.83;;;5.80;99.90;;;;;;5095261;28;20044;-72
2023/04/08 06:53:25;;;;;;;4.03;3.75;;;5.80;99.90;;;;;;5095256;28;20043;-76
2023/04/08 06:55:50;;;;;;;3.60;3.40;;;5.90;99.90;;;;;;5094843;28;20433;-80
2023/04/08 06:58:16;;;;;;;3.67;3.47;;;5.90;99.90;;;;;;5095102;28;20051;-75
2023/04/08 07:00:42;;;;;;;3.72;3.53;;;5.90;99.90;;;;;;5094332;28;20040;-74
2023/04/08 07:03:08;;;;;;;3.58;3.38;;;5.90;99.90;;;;;;5093842;28;20067;-74
2023/04/08 07:05:37;;;;;;;3.65;3.42;;;6.00;99.90;;;;;;5095032;28;20043;-74
2023/04/08 07:08:03;;;;;;;3.72;3.53;;;6.00;99.90;;;;;;5093492;28;20346;-74
2023/04/08 07:10:29;;;;;;;3.60;3.40;;;6.10;99.90;;;;;;5093439;28;20039;-74
2023/04/08 07:12:55;;;;;;;3.70;3.50;;;6.20;99.90;;;;;;5093354;28;20036;-74
2023/04/08 07:15:21;;;;;;;3.70;3.50;;;6.20;99.90;;;;;;5093683;28;20070;-74
2023/04/08 07:17:46;;;;;;;3.80;3.60;;;6.30;99.90;;;;;;5076539;28;20051;-74
2023/04/08 07:20:12;;;;;;;3.50;3.30;;;6.30;99.90;;;;;;5093315;28;20036;-75
2023/04/08 07:22:41;;;;;;;3.80;3.60;;;6.50;99.90;;;;;;5094832;28;20039;-74
2023/04/08 07:25:07;;;;;;;3.50;3.30;;;6.60;99.90;;;;;;5095253;28;20161;-73
2023/04/08 07:27:34;;;;;;;3.50;3.30;;;6.60;99.90;;;;;;5076258;28;20466;-70
2023/04/08 07:30:00;;;;;;;4.30;4.00;;;6.70;99.90;;;;;;5094344;28;20040;-71
2023/04/08 07:32:26;;;;;;;3.40;3.20;;;6.90;99.90;;;;;;5127154;28;20115;-75
2023/04/08 07:34:52;;;;;;;3.40;3.20;;;7.10;99.90;;;;;;5093371;28;20393;-75
2023/04/08 07:37:17;;;;;;;3.30;3.10;;;7.20;99.90;;;;;;5055067;28;1079933;-74
2023/04/08 07:39:43;;;;;;;3.20;3.00;;;7.20;99.90;;;;;;5077168;28;20058;-75
2023/04/08 07:42:08;;;;;;;3.17;2.97;;;7.30;99.90;;;;;;5077166;28;20039;-74
2023/04/08 07:44:34;;;;;;;3.50;3.30;;;7.20;99.90;;;;;;5127958;27;20032;-74
2023/04/08 07:47:00;;;;;;;3.50;3.30;;;7.30;99.90;;;;;;5095338;28;20044;-79
2023/04/08 07:49:26;;;;;;;3.42;3.22;;;7.30;99.90;;;;;;5094054;28;20494;-75
2023/04/08 07:51:52;;;;;;;3.70;3.50;;;7.30;99.90;;;;;;5095251;28;20085;-74
2023/04/08 07:54:17;;;;;;;3.67;3.47;;;7.30;99.90;;;;;;5094114;28;20063;-73
2023/04/08 07:56:43;;;;;;;3.25;3.05;;;7.30;99.90;;;;;;5127883;27;20036;-74
2023/04/08 07:59:12;;;;;;;3.92;3.72;;;7.30;99.90;;;;;;5093817;28;20048;-73
2023/04/08 08:01:38;;;;;;;3.35;3.15;;;7.40;99.90;;;;;;5093480;28;20040;-74
2023/04/08 08:04:04;;;;;;;3.58;3.38;;;7.60;99.90;;;;;;5093689;28;20381;-74
2023/04/08 08:06:32;;;;;;;3.40;3.20;;;7.70;99.90;;;;;;5093333;28;20115;-74
2023/04/08 08:08:59;;;;;;;3.40;3.20;;;7.80;99.90;;;;;;5093464;28;20115;-74
2023/04/08 08:11:26;;;;;;;3.05;2.85;;;7.90;99.90;;;;;;5094907;28;20032;-74
2023/04/08 08:13:52;;;;;;;2.92;2.83;;;7.80;99.90;;;;;;5094817;28;20043;-74
2023/04/08 08:16:18;;;;;;;2.90;2.80;;;7.90;99.90;;;;;;5093260;28;20093;-74
2023/04/08 08:18:44;;;;;;;3.00;2.80;;;7.90;99.90;;;;;;5076263;28;20036;-74
2023/04/08 08:21:10;;;;;;;2.92;2.83;;;7.90;99.90;;;;;;5094678;28;20047;-73
2023/04/08 08:23:36;;;;;;;2.90;2.70;;;8.00;99.90;;;;;;5076166;28;20399;-73
2023/04/08 08:26:09;;;;;;;2.92;2.83;;;7.90;99.90;;;;;;5093157;28;20472;-74
2023/04/08 08:28:35;;;;;;;2.88;2.78;;;8.00;99.90;;;;;;5095016;28;20039;-73
2023/04/08 08:31:04;;;;;;;3.17;2.97;;;7.90;99.90;;;;;;5092942;28;20036;-73
2023/04/08 08:33:31;;;;;;;3.23;3.03;;;7.90;99.90;;;;;;5094354;28;20043;-73
2023/04/08 08:35:59;;;;;;;3.53;3.22;;;7.90;99.90;;;;;;5076233;28;20680;-73
2023/04/08 08:38:25;;;;;;;3.25;3.05;;;8.00;99.90;;;;;;5093960;28;20060;-73
2023/04/08 08:40:55;;;;;;;3.53;3.33;;;8.20;99.90;;;;;;5094318;28;20050;-73
2023/04/08 08:43:21;;;;;;;3.37;3.17;;;8.10;99.90;;;;;;5094553;28;20422;-73
2023/04/08 08:45:47;;;;;;;3.40;3.20;;;8.20;99.90;;;;;;5127015;27;20040;-75
2023/04/08 08:48:13;;;;;;;3.05;2.95;;;8.30;99.90;;;;;;5094138;28;20476;-75
2023/04/08 08:50:39;;;;;;;3.30;3.10;;;8.40;99.90;;;;;;5127031;27;20032;-77
2023/04/08 08:53:04;;;;;;;3.20;3.00;;;8.40;99.90;;;;;;5093921;28;20584;-77
2023/04/08 08:55:32;;;;;;;3.20;3.00;;;8.40;99.90;;;;;;5093076;28;20057;-76
2023/04/08 08:58:01;;;;;;;3.10;2.90;;;8.40;99.90;;;;;;5092911;28;20044;-77
2023/04/08 09:00:38;;;;;;;2.70;2.60;;;8.40;99.90;;;;;;5092946;28;20062;-78
2023/04/08 09:03:21;;;;;;;3.20;3.00;;;8.40;99.90;;;;;;5075632;28;20488;-77
2023/04/08 09:05:47;;;;;;;2.83;2.70;;;8.40;99.90;;;;;;5093954;28;20119;-76
2023/04/08 09:08:33;;;;;;;2.90;2.80;;;8.50;99.90;;;;;;5093564;28;20533;-76
2023/04/08 09:11:18;;;;;;;2.72;2.63;;;8.60;99.90;;;;;;5092307;28;20073;-76
2023/04/08 09:13:45;;;;;;;2.80;2.70;;;8.70;99.90;;;;;;5092307;28;20031;-76
2023/04/08 09:16:16;;;;;;;2.60;2.47;;;8.70;99.90;;;;;;5075553;28;20043;-74
2023/04/08 09:18:44;;;;;;;2.65;2.55;;;8.70;99.90;;;;;;5092027;28;20460;-75
2023/04/08 09:21:11;;;;;;;2.50;2.40;;;8.70;99.90;;;;;;5092478;28;20058;-75
2023/04/08 09:23:43;;;;;;;2.60;2.50;;;8.70;99.90;;;;;;5093426;28;20482;-75
2023/04/08 09:26:21;;;;;;;2.40;2.30;;;8.70;99.90;;;;;;5092069;28;20071;-75
2023/04/08 09:29:02;;;;;;;2.40;2.30;;;8.70;99.90;;;;;;5092772;28;20484;-75
2023/04/08 09:31:30;;;;;;;2.42;2.33;;;8.70;99.90;;;;;;5092141;28;20040;-74
2023/04/08 09:33:58;;;;;;;2.28;2.17;;;8.60;99.90;;;;;;5093688;28;20043;-77
2023/04/08 09:36:25;;;;;;;2.42;2.33;;;8.60;99.90;;;;;;5093664;28;20046;-75
2023/04/08 09:38:51;;;;;;;2.60;2.50;;;8.50;99.90;;;;;;5091878;28;20105;-75
2023/04/08 09:41:19;;;;;;;2.60;2.50;;;8.60;99.90;;;;;;5092357;28;20090;-76
2023/04/08 09:43:49;;;;;;;2.83;2.63;;;8.60;99.90;;;;;;5093545;28;20048;-72
2023/04/08 09:46:17;;;;;;;2.50;2.40;;;8.60;99.90;;;;;;5091857;28;20476;-78
2023/04/08 09:49:05;;;;;;;2.47;2.38;;;8.60;99.90;;;;;;5091877;28;20545;-77
2023/04/08 09:51:39;;;;;;;2.25;2.15;;;8.60;99.90;;;;;;5092124;28;20366;-77
2023/04/08 09:54:12;;;;;;;2.70;2.60;;;8.70;99.90;;;;;;5075007;28;20069;-77
2023/04/08 09:56:48;;;;;;;2.72;2.63;;;8.70;99.90;;;;;;5093043;28;20040;-75
2023/04/08 09:59:16;;;;;;;2.60;2.50;;;8.80;99.90;;;;;;5091781;28;20055;-76
2023/04/08 10:01:57;;;;;;;2.50;2.40;;;8.80;99.90;;;;;;5091796;28;20043;-76
2023/04/08 10:04:25;;;;;;;2.70;2.60;;;8.80;99.90;;;;;;5091732;28;20129;-77
2023/04/08 10:07:02;;;;;;;2.53;2.42;;;8.90;99.90;;;;;;5125691;28;20051;-77
2023/04/08 10:09:29;;;;;;;2.83;2.63;;;9.00;99.90;;;;;;5091911;28;20048;-77
2023/04/08 10:11:55;;;;;;;2.38;2.28;;;9.00;99.90;;;;;;5126121;28;20040;-74
2023/04/08 10:14:21;;;;;;;2.38;2.28;;;9.00;99.90;;;;;;5092941;28;20506;-72
2023/04/08 10:16:47;;;;;;;2.47;2.38;;;9.00;99.90;;;;;;5091666;28;20124;-79
2023/04/08 10:19:37;;;;;;;2.50;2.30;;;9.10;99.90;;;;;;5091918;28;20036;-79
2023/04/08 10:22:03;;;;;;;2.42;2.30;;;9.20;99.90;;;;;;5091931;28;20085;-79
2023/04/08 10:24:28;;;;;;;2.17;2.08;;;9.20;99.90;;;;;;5093107;28;20472;-80
2023/04/08 10:26:55;;;;;;;2.45;2.35;;;9.30;99.90;;;;;;5092915;28;20032;-80
2023/04/08 10:29:21;;;;;;;2.30;2.20;;;9.30;99.90;;;;;;5092988;28;20044;-81
2023/04/08 10:31:50;;;;;;;2.40;2.30;;;9.40;99.90;;;;;;5095602;28;20089;-79
2023/04/08 10:34:21;;;;;;;2.53;2.43;;;9.40;99.90;;;;;;5095166;28;20044;-79
2023/04/08 10:36:50;;;;;;;2.60;2.50;;;9.50;99.90;;;;;;5095158;28;20142;-80
2023/04/08 10:39:16;;;;;;;2.75;2.55;;;9.60;99.90;;;;;;5094869;28;20117;-71
2023/04/08 10:41:42;;;;;;;2.58;2.47;;;9.60;99.90;;;;;;5129283;27;20044;-71
2023/04/08 10:44:19;;;;;;;2.80;2.60;;;9.60;99.90;;;;;;5095137;28;20043;-70
2023/04/08 10:46:49;;;;;;;2.60;2.40;;;9.60;99.90;;;;;;5096513;28;20426;-71
2023/04/08 10:49:16;;;;;;;2.17;2.08;;;9.60;99.90;;;;;;5095293;28;20146;-71
2023/04/08 10:51:43;;;;;;;2.83;2.70;;;9.60;99.90;;;;;;5078015;28;20028;-72
2023/04/08 10:54:13;;;;;;;2.40;2.30;;;9.60;99.90;;;;;;5095037;28;20043;-73
2023/04/08 10:56:47;;;;;;;2.70;2.50;;;9.70;99.90;;;;;;5077951;28;20039;-72
2023/04/08 10:59:15;;;;;;;2.40;2.30;;;9.70;99.90;;;;;;5077995;28;20170;-71
2023/04/08 11:01:43;;;;;;;2.33;2.22;;;9.80;99.90;;;;;;5094779;28;20110;-70
2023/04/08 11:04:18;;;;;;;2.33;2.22;;;9.80;99.90;;;;;;5096194;28;20111;-72
2023/04/08 11:06:46;;;;;;;2.38;2.28;;;9.80;99.90;;;;;;5094569;28;20051;-71
2023/04/08 11:09:12;;;;;;;2.35;2.25;;;9.90;99.90;;;;;;5094484;28;20048;-71
2023/04/08 11:11:41;;;;;;;2.22;2.13;;;9.90;99.90;;;;;;5094530;28;20057;-72
2023/04/08 11:14:06;;;;;;;2.33;2.22;;;9.90;99.90;;;;;;5094720;28;20122;-72
2023/04/08 11:16:34;;;;;;;2.35;2.20;;;9.80;99.90;;;;;;5095911;28;20506;-72
2023/04/08 11:19:02;;;;;;;2.40;2.30;;;9.80;99.90;;;;;;5094352;28;20048;-73
2023/04/08 11:21:28;;;;;;;2.65;2.45;;;9.90;99.90;;;;;;5094578;28;20040;-72
2023/04/08 11:23:54;;;;;;;2.70;2.50;;;9.90;99.90;;;;;;5095401;28;20040;-72
2023/04/08 11:26:20;;;;;;;2.50;2.40;;;9.90;99.90;;;;;;5095646;28;20032;-71
2023/04/08 11:28:50;;;;;;;3.03;2.83;;;10.00;99.90;;;;;;5095380;28;20434;-71
2023/04/08 11:31:20;;;;;;;2.58;2.47;;;10.00;99.90;;;;;;5094150;28;20055;-72
2023/04/08 11:33:50;;;;;;;2.60;2.50;;;10.00;99.90;;;;;;5094519;28;20040;-70
2023/04/08 11:36:17;;;;;;;2.97;2.78;;;10.10;99.90;;;;;;5093991;28;20050;-74
2023/04/08 11:38:43;;;;;;;2.78;2.58;;;10.10;99.90;;;;;;5093880;28;20492;-74
2023/04/08 11:41:10;;;;;;;3.17;2.97;;;10.10;99.90;;;;;;5093569;28;20032;-72
2023/04/08 11:43:36;;;;;;;3.03;2.83;;;10.10;99.90;;;;;;5093098;28;20043;-73
2023/04/08 11:46:09;;;;;;;3.00;2.80;;;10.10;99.90;;;;;;5095378;28;20036;-74
2023/04/08 11:48:35;;;;;;;3.10;2.90;;;10.10;99.90;;;;;;5095346;28;20044;-72
2023/04/08 11:51:07;;;;;;;2.90;2.70;;;10.10;99.90;;;;;;5094092;28;20085;-72
2023/04/08 11:53:36;;;;;;;3.22;2.97;;;10.10;99.90;;;;;;5095715;28;20043;-72
2023/04/08 11:56:18;;;;;;;3.33;3.13;;;10.10;99.90;;;;;;5093658;28;20032;-72
2023/04/08 11:58:45;;;;;;;3.50;3.20;;;10.10;99.90;;;;;;5093574;28;20036;-72
2023/04/08 12:01:11;;;;;;;3.30;3.08;;;10.10;99.90;;;;;;5093580;28;20044;-72
2023/04/08 12:03:37;;;;;;;3.40;3.20;;;10.10;99.90;;;;;;5093485;28;20038;-72
2023/04/08 12:06:04;;;;;;;3.38;3.17;;;10.10;99.90;;;;;;5094971;28;20042;-72
2023/04/08 12:08:30;;;;;;;3.40;3.20;;;10.10;99.90;;;;;;5093396;28;20188;-72
2023/04/08 12:10:56;;;;;;;3.95;3.72;;;10.10;99.90;;;;;;5094549;28;20119;-72
2023/04/08 12:13:21;;;;;;;4.05;3.65;;;10.10;99.90;;;;;;5076428;28;20051;-72
2023/04/08 12:15:47;;;;;;;4.47;4.18;;;10.10;99.90;;;;;;5094783;28;20048;-72
2023/04/08 12:18:12;;;;;;;4.10;3.80;;;10.10;99.90;;;;;;5093198;28;20040;-73
2023/04/08 12:20:38;;;;;;;4.60;4.30;;;10.00;99.90;;;;;;5093098;28;20032;-72
2023/04/08 12:23:03;;;;;;;4.45;4.15;;;10.10;99.90;;;;;;5093153;28;20127;-75
2023/04/08 12:25:30;;;;;;;4.50;4.20;;;10.00;99.90;;;;;;5094560;28;20062;-71
2023/04/08 12:27:56;;;;;;;4.75;4.45;;;10.00;99.90;;;;;;5092945;28;20089;-81
2023/04/08 12:30:21;;;;;;;4.43;4.13;;;10.10;99.90;;;;;;5092893;28;20434;-72
2023/04/08 12:32:47;;;;;;;5.20;4.80;;;10.10;99.90;;;;;;5094415;28;20115;-73
2023/04/08 12:35:13;;;;;;;4.88;4.57;;;10.10;99.90;;;;;;5092888;28;20116;-73
2023/04/08 12:37:39;;;;;;;4.70;4.40;;;10.10;99.90;;;;;;5075699;28;20040;-73
2023/04/08 12:40:06;;;;;;;5.18;4.78;;;10.00;99.90;;;;;;5094344;28;20472;-72
2023/04/08 12:42:32;;;;;;;5.40;5.10;;;10.00;99.90;;;;;;5092689;28;20504;-73
2023/04/08 12:44:57;;;;;;;5.10;4.80;;;10.00;99.90;;;;;;5092714;28;20043;-72
2023/04/08 12:47:23;;;;;;;5.25;4.93;;;10.00;99.90;;;;;;5094175;28;20032;-74
2023/04/08 12:49:48;;;;;;;5.43;5.03;;;10.00;99.90;;;;;;5126722;27;20487;-73
2023/04/08 12:52:14;;;;;;;5.53;5.13;;;10.00;99.90;;;;;;5094208;28;20036;-73
2023/04/08 12:54:40;;;;;;;6.05;5.65;;;10.00;99.90;;;;;;5093392;28;20464;-73
2023/04/08 12:57:05;;;;;;;5.30;4.90;;;10.00;99.90;;;;;;5092576;28;20044;-72